Time;durP1;ratioP1;P1;durP2;ratioP2;P2;SDS_P1;SDS_P2;PMS_P1;PMS_P2;Temp;Humidity;BMP_temperature;BMP_pressure;BME280_temperature;BME280_humidity;BME280_pressure;Samples;Min_cycle;Max_cycle;Signal;HPM_P1;HPM_P2
2022/07/30 00:01:57;;;;;;;8.93;4.65;;;16.50;99.90;;;;;;4356064;28;10000298;-76
2022/07/30 00:04:23;;;;;;;7.28;4.35;;;16.60;99.90;;;;;;5054233;28;20687;-77
2022/07/30 00:06:48;;;;;;;4.90;4.40;;;16.60;99.90;;;;;;5070232;28;20040;-77
2022/07/30 00:09:14;;;;;;;4.47;4.03;;;16.60;99.90;;;;;;5057262;28;20021;-77
2022/07/30 00:11:40;;;;;;;7.53;4.47;;;16.60;99.90;;;;;;5066144;28;20119;-77
2022/07/30 00:14:06;;;;;;;4.25;3.85;;;16.60;99.90;;;;;;5072211;28;20033;-77
2022/07/30 00:16:31;;;;;;;6.55;4.45;;;16.50;99.90;;;;;;5048528;28;20591;-77
2022/07/30 00:18:57;;;;;;;5.82;4.47;;;16.60;99.90;;;;;;5057853;28;20477;-77
2022/07/30 00:21:23;;;;;;;4.88;4.00;;;16.60;99.90;;;;;;5055997;28;20035;-77
2022/07/30 00:23:48;;;;;;;5.57;4.18;;;16.60;99.90;;;;;;5071805;28;20099;-77
2022/07/30 00:26:14;;;;;;;6.60;4.38;;;16.60;99.90;;;;;;5067467;28;20912;-77
2022/07/30 00:28:39;;;;;;;5.57;4.45;;;16.60;99.90;;;;;;5054718;28;20055;-77
2022/07/30 00:31:05;;;;;;;4.55;3.95;;;16.60;99.90;;;;;;5052419;28;20431;-77
2022/07/30 00:33:30;;;;;;;4.22;3.60;;;16.50;99.90;;;;;;5072429;28;20036;-77
2022/07/30 00:35:56;;;;;;;4.90;4.03;;;16.50;99.90;;;;;;5056573;28;20031;-77
2022/07/30 00:38:21;;;;;;;6.07;4.30;;;16.50;99.90;;;;;;5058663;28;20075;-76
2022/07/30 00:40:47;;;;;;;5.80;3.95;;;16.50;99.90;;;;;;5049944;28;20025;-77
2022/07/30 00:43:15;;;;;;;4.25;3.72;;;16.40;99.90;;;;;;5056399;28;20967;-77
2022/07/30 00:45:41;;;;;;;4.47;3.75;;;16.50;99.90;;;;;;5064953;28;20102;-77
2022/07/30 00:48:09;;;;;;;5.50;4.13;;;16.40;99.90;;;;;;5064391;28;20076;-77
2022/07/30 00:50:34;;;;;;;4.22;3.83;;;16.40;99.90;;;;;;5048694;28;20033;-76
2022/07/30 00:53:00;;;;;;;4.57;3.83;;;16.40;99.90;;;;;;5076935;28;20032;-76
2022/07/30 00:55:26;;;;;;;4.20;3.38;;;16.40;99.90;;;;;;5076399;28;20032;-77
2022/07/30 00:57:51;;;;;;;4.50;3.55;;;16.50;99.90;;;;;;5057597;28;20020;-77
2022/07/30 01:00:17;;;;;;;3.90;3.55;;;16.50;99.90;;;;;;5050657;28;20025;-77
2022/07/30 01:02:43;;;;;;;4.10;3.78;;;16.50;99.90;;;;;;5069023;28;20478;-77
2022/07/30 01:05:09;;;;;;;6.82;4.35;;;16.50;99.90;;;;;;5061770;28;20075;-77
2022/07/30 01:07:35;;;;;;;4.03;3.72;;;16.50;99.90;;;;;;5073373;28;20039;-76
2022/07/30 01:10:01;;;;;;;3.45;3.15;;;16.50;99.90;;;;;;5054230;28;20033;-77
2022/07/30 01:12:27;;;;;;;4.22;3.72;;;16.50;99.90;;;;;;5048718;28;20033;-77
2022/07/30 01:14:55;;;;;;;5.30;3.75;;;16.50;99.90;;;;;;5053259;28;20021;-76
2022/07/30 01:17:21;;;;;;;5.80;4.15;;;16.50;99.90;;;;;;5054537;28;20553;-76
2022/07/30 01:19:48;;;;;;;6.65;4.30;;;16.50;99.90;;;;;;5052987;28;20032;-77
2022/07/30 01:22:30;;;;;;;7.45;4.20;;;16.50;99.90;;;;;;5078632;28;20047;-76
2022/07/30 01:25:15;;;;;;;5.63;4.10;;;16.50;99.90;;;;;;5060768;28;20083;-76
2022/07/30 01:28:05;;;;;;;4.38;3.97;;;16.50;99.90;;;;;;5078010;28;20384;-77
2022/07/30 01:30:34;;;;;;;5.38;4.07;;;16.50;99.90;;;;;;5045889;28;20021;-76
2022/07/30 01:33:01;;;;;;;5.68;4.55;;;16.40;99.90;;;;;;5055213;28;20119;-76
2022/07/30 01:35:29;;;;;;;5.47;4.40;;;16.40;99.90;;;;;;5055953;28;20033;-76
2022/07/30 01:37:56;;;;;;;5.18;4.13;;;16.40;99.90;;;;;;5078089;28;20056;-76
2022/07/30 01:40:24;;;;;;;4.75;3.88;;;16.30;99.90;;;;;;5053047;28;20109;-77
2022/07/30 01:42:56;;;;;;;4.60;3.75;;;16.30;99.90;;;;;;5057410;28;20488;-76
2022/07/30 01:45:25;;;;;;;5.00;4.35;;;16.20;99.90;;;;;;5069847;28;20526;-77
2022/07/30 01:47:53;;;;;;;5.78;4.40;;;16.20;99.90;;;;;;5064972;28;20190;-76
2022/07/30 01:50:20;;;;;;;6.05;3.95;;;16.30;99.90;;;;;;5053093;28;20024;-76
2022/07/30 01:52:47;;;;;;;5.93;4.50;;;16.30;99.90;;;;;;5059074;28;20052;-76
2022/07/30 01:55:17;;;;;;;7.57;4.70;;;16.20;99.90;;;;;;5067606;28;20757;-77
2022/07/30 01:57:45;;;;;;;7.03;4.65;;;16.30;99.90;;;;;;5055942;28;20127;-76
2022/07/30 02:00:12;;;;;;;5.20;4.70;;;16.30;99.90;;;;;;5049747;28;20112;-76
2022/07/30 02:02:40;;;;;;;4.57;4.18;;;16.30;99.90;;;;;;5052825;28;20147;-76
2022/07/30 02:05:06;;;;;;;6.50;4.97;;;16.20;99.90;;;;;;5048738;28;20393;-76
2022/07/30 02:07:45;;;;;;;5.68;4.93;;;16.20;99.90;;;;;;5066923;28;20036;-77
2022/07/30 02:10:25;;;;;;;5.90;4.95;;;16.20;99.90;;;;;;5054612;28;20044;-76
2022/07/30 02:12:55;;;;;;;4.85;4.38;;;16.20;99.90;;;;;;5057455;28;20051;-76
2022/07/30 02:15:38;;;;;;;6.72;4.65;;;16.20;99.90;;;;;;5066486;28;20024;-76
2022/07/30 02:18:13;;;;;;;4.75;4.25;;;16.30;99.90;;;;;;5049031;28;20049;-76
2022/07/30 02:20:44;;;;;;;7.07;4.80;;;16.20;99.90;;;;;;5046348;28;20034;-76
2022/07/30 02:23:11;;;;;;;6.20;5.60;;;16.30;99.90;;;;;;5063636;28;20028;-76
2022/07/30 02:25:50;;;;;;;7.28;5.18;;;16.30;99.90;;;;;;5070700;28;20052;-76
2022/07/30 02:28:17;;;;;;;7.40;4.78;;;16.20;99.90;;;;;;5059874;28;20039;-76
2022/07/30 02:30:51;;;;;;;5.47;5.03;;;16.20;99.90;;;;;;5065613;28;20025;-77
2022/07/30 02:33:21;;;;;;;5.30;4.70;;;16.20;99.90;;;;;;5055732;28;20224;-77
2022/07/30 02:35:48;;;;;;;6.93;5.70;;;16.20;99.90;;;;;;5047047;28;20024;-77
2022/07/30 02:38:16;;;;;;;6.28;5.68;;;16.30;99.90;;;;;;5052393;28;20057;-76
2022/07/30 02:40:43;;;;;;;7.20;5.40;;;16.30;99.90;;;;;;5050803;28;20024;-77
2022/07/30 02:43:10;;;;;;;10.57;6.03;;;16.40;99.90;;;;;;5056404;28;20025;-77
2022/07/30 02:45:36;;;;;;;7.07;4.78;;;16.30;99.90;;;;;;5073489;28;20144;-77
2022/07/30 02:48:08;;;;;;;6.75;5.28;;;16.30;99.90;;;;;;5055626;28;20412;-77
2022/07/30 02:50:35;;;;;;;5.38;4.75;;;16.30;99.90;;;;;;5055890;28;20507;-77
2022/07/30 02:53:02;;;;;;;6.68;5.47;;;16.30;99.90;;;;;;5057812;28;20040;-76
2022/07/30 02:55:31;;;;;;;6.47;5.82;;;16.30;99.90;;;;;;5047452;28;20074;-77
2022/07/30 02:57:58;;;;;;;5.78;4.88;;;16.30;99.90;;;;;;5050866;28;20025;-77
2022/07/30 03:00:27;;;;;;;6.07;5.45;;;16.30;99.90;;;;;;5064177;28;20063;-77
2022/07/30 03:02:54;;;;;;;5.57;5.07;;;16.30;99.90;;;;;;5063182;28;20442;-77
2022/07/30 03:05:20;;;;;;;6.30;5.70;;;16.30;99.90;;;;;;5055665;28;20031;-77
2022/07/30 03:07:47;;;;;;;6.70;6.00;;;16.30;99.90;;;;;;5057476;28;20032;-77
2022/07/30 03:10:14;;;;;;;7.00;5.70;;;16.30;99.90;;;;;;5053879;28;20115;-76
2022/07/30 03:12:43;;;;;;;6.00;5.50;;;16.30;99.90;;;;;;5058860;28;20036;-76
2022/07/30 03:15:09;;;;;;;6.25;5.68;;;16.30;99.90;;;;;;5065707;28;20039;-77
2022/07/30 03:17:42;;;;;;;7.28;5.95;;;16.30;99.90;;;;;;5058159;28;20020;-76
2022/07/30 03:20:11;;;;;;;8.57;6.25;;;16.30;99.90;;;;;;5049625;28;20089;-76
2022/07/30 03:22:41;;;;;;;9.30;6.85;;;16.30;99.90;;;;;;5058644;28;20031;-77
2022/07/30 03:25:08;;;;;;;7.10;6.15;;;16.20;99.90;;;;;;5047563;28;20344;-77
2022/07/30 03:27:37;;;;;;;7.68;5.70;;;16.20;99.90;;;;;;5060432;28;20472;-76
2022/07/30 03:30:05;;;;;;;7.47;6.03;;;16.20;99.90;;;;;;5065448;28;20789;-76
2022/07/30 03:32:33;;;;;;;8.25;7.15;;;16.20;99.90;;;;;;5060380;28;20043;-76
2022/07/30 03:34:59;;;;;;;8.05;7.13;;;16.20;99.90;;;;;;5061555;28;20056;-76
2022/07/30 03:37:30;;;;;;;9.02;8.00;;;16.20;99.90;;;;;;5077044;28;20043;-77
2022/07/30 03:39:59;;;;;;;8.68;7.78;;;16.20;99.90;;;;;;5045423;28;20499;-76
2022/07/30 03:42:26;;;;;;;8.63;7.65;;;16.20;99.90;;;;;;5068990;28;20027;-76
2022/07/30 03:44:52;;;;;;;9.88;8.52;;;16.20;99.90;;;;;;5065211;28;20040;-76
2022/07/30 03:47:20;;;;;;;13.68;10.75;;;16.20;99.90;;;;;;5047592;28;20071;-77
2022/07/30 03:49:45;;;;;;;12.35;8.50;;;16.20;99.90;;;;;;5066736;28;20059;-76
2022/07/30 03:52:11;;;;;;;10.88;8.50;;;16.20;99.90;;;;;;5060816;28;20094;-77
2022/07/30 03:54:37;;;;;;;9.98;8.45;;;16.20;99.90;;;;;;5061514;28;20058;-77
2022/07/30 03:57:04;;;;;;;8.20;7.40;;;16.20;99.90;;;;;;5081687;28;20025;-77
2022/07/30 03:59:30;;;;;;;10.50;8.88;;;16.30;99.90;;;;;;5070761;28;20046;-76
2022/07/30 04:02:02;;;;;;;13.55;9.45;;;16.20;99.90;;;;;;5061009;28;20477;-76
2022/07/30 04:04:29;;;;;;;9.90;8.65;;;16.30;99.90;;;;;;5058971;28;20028;-76
2022/07/30 04:06:58;;;;;;;8.63;7.68;;;16.30;99.90;;;;;;5057754;28;20032;-76
2022/07/30 04:09:24;;;;;;;12.07;9.15;;;16.30;99.90;;;;;;5066627;28;20031;-76
2022/07/30 04:11:50;;;;;;;12.05;8.30;;;16.30;99.90;;;;;;5052803;28;20041;-76
2022/07/30 04:14:16;;;;;;;14.05;9.70;;;16.30;99.90;;;;;;5064272;28;20028;-76
2022/07/30 04:16:59;;;;;;;11.75;9.15;;;16.30;99.90;;;;;;5070607;28;20520;-77
2022/07/30 04:19:33;;;;;;;12.35;9.75;;;16.30;99.90;;;;;;5049193;28;20031;-76
2022/07/30 04:22:01;;;;;;;12.90;9.10;;;16.30;99.90;;;;;;5066962;28;20029;-77
2022/07/30 04:24:29;;;;;;;18.08;12.00;;;16.30;99.90;;;;;;5057048;28;20564;-77
2022/07/30 04:26:57;;;;;;;13.25;10.85;;;16.30;99.90;;;;;;5056702;28;20032;-77
2022/07/30 04:29:22;;;;;;;14.73;10.35;;;16.30;99.90;;;;;;5054339;28;20029;-77
2022/07/30 04:31:48;;;;;;;13.75;9.75;;;16.30;99.90;;;;;;5059348;28;20111;-77
2022/07/30 04:34:14;;;;;;;13.63;11.15;;;16.30;99.90;;;;;;5066051;28;20572;-77
2022/07/30 04:36:41;;;;;;;12.75;11.43;;;16.30;99.90;;;;;;5074209;28;20028;-76
2022/07/30 04:39:06;;;;;;;16.75;10.32;;;16.30;99.90;;;;;;5058813;28;20035;-77
2022/07/30 04:41:32;;;;;;;13.75;11.10;;;16.30;99.90;;;;;;5054445;28;20020;-78
2022/07/30 04:43:58;;;;;;;12.18;10.10;;;16.30;99.90;;;;;;5059101;28;20489;-78
2022/07/30 04:46:23;;;;;;;15.63;9.20;;;16.30;99.90;;;;;;5059639;28;20031;-78
2022/07/30 04:48:49;;;;;;;11.13;8.60;;;16.30;99.90;;;;;;5048363;28;20450;-78
2022/07/30 04:51:34;;;;;;;11.15;9.43;;;16.20;99.90;;;;;;5052475;28;20029;-78
2022/07/30 04:54:04;;;;;;;11.30;9.60;;;16.30;99.90;;;;;;5058285;28;20040;-78
2022/07/30 04:56:32;;;;;;;9.15;8.10;;;16.30;99.90;;;;;;5053217;28;20029;-77
2022/07/30 04:58:58;;;;;;;13.77;9.40;;;16.30;99.90;;;;;;5047387;28;20060;-77
2022/07/30 05:01:30;;;;;;;13.80;9.45;;;16.30;99.90;;;;;;5047005;28;20056;-77
2022/07/30 05:03:57;;;;;;;11.65;9.82;;;16.40;99.90;;;;;;5052614;28;20068;-77
2022/07/30 05:06:24;;;;;;;13.13;10.13;;;16.40;99.90;;;;;;5055357;28;20047;-78
2022/07/30 05:08:50;;;;;;;13.07;10.25;;;16.40;99.90;;;;;;5050758;28;20043;-77
2022/07/30 05:11:16;;;;;;;10.98;9.85;;;16.40;99.90;;;;;;5058339;28;20358;-77
2022/07/30 05:13:49;;;;;;;11.90;9.48;;;16.50;99.90;;;;;;5054707;28;20389;-77
2022/07/30 05:16:15;;;;;;;;;;;16.50;99.90;;;;;;5057764;28;20028;-78
2022/07/30 05:18:41;;;;;;;14.40;10.07;;;16.50;99.90;;;;;;5051597;28;20291;-77
2022/07/30 05:21:07;;;;;;;16.23;11.07;;;16.50;99.90;;;;;;5058669;28;20036;-77
2022/07/30 05:23:34;;;;;;;13.50;10.25;;;16.50;99.90;;;;;;5063322;28;20120;-77
2022/07/30 05:26:00;;;;;;;10.75;9.32;;;16.50;99.90;;;;;;5063473;28;20074;-77
2022/07/30 05:28:25;;;;;;;11.18;8.45;;;16.50;99.90;;;;;;5051228;28;20028;-77
2022/07/30 05:30:54;;;;;;;9.30;8.40;;;16.60;99.90;;;;;;5055927;28;20036;-78
2022/07/30 05:33:21;;;;;;;9.70;8.85;;;16.70;99.90;;;;;;5050769;28;20566;-78
2022/07/30 05:35:48;;;;;;;10.82;9.80;;;16.70;99.90;;;;;;5055182;28;20641;-78
2022/07/30 05:38:14;;;;;;;11.77;10.43;;;16.70;99.90;;;;;;5055427;28;20425;-77
2022/07/30 05:40:40;;;;;;;9.88;8.93;;;16.80;99.90;;;;;;5056086;28;20028;-78
2022/07/30 05:43:05;;;;;;;11.63;9.68;;;16.80;99.90;;;;;;5069071;28;20481;-77
2022/07/30 05:45:31;;;;;;;13.07;9.98;;;16.90;99.90;;;;;;5053375;28;20761;-77
2022/07/30 05:47:57;;;;;;;12.77;11.23;;;16.90;99.90;;;;;;5052260;28;20111;-77
2022/07/30 05:50:22;;;;;;;14.45;11.75;;;16.90;99.90;;;;;;5048854;28;20115;-77
2022/07/30 05:52:48;;;;;;;12.38;9.32;;;17.00;99.90;;;;;;5054362;28;20497;-78
2022/07/30 05:55:13;;;;;;;18.60;10.93;;;17.10;99.90;;;;;;5047360;28;20146;-78
2022/07/30 05:57:41;;;;;;;17.15;10.93;;;17.10;99.90;;;;;;5045399;28;20024;-78
2022/07/30 06:00:08;;;;;;;13.68;10.18;;;17.10;99.90;;;;;;5051779;28;20024;-78
2022/07/30 06:02:33;;;;;;;16.05;10.73;;;17.20;99.90;;;;;;5050648;28;20518;-75
2022/07/30 06:04:59;;;;;;;13.50;9.85;;;17.30;99.90;;;;;;5063425;28;20028;-74
2022/07/30 06:07:25;;;;;;;16.48;9.48;;;17.30;99.90;;;;;;5052689;28;20476;-74
2022/07/30 06:09:51;;;;;;;11.07;9.80;;;17.30;99.90;;;;;;5045208;28;20021;-74
2022/07/30 06:12:17;;;;;;;9.88;8.65;;;17.30;99.90;;;;;;5046606;28;20029;-74
2022/07/30 06:14:42;;;;;;;13.82;10.10;;;17.40;99.90;;;;;;5046800;28;20570;-75
2022/07/30 06:17:08;;;;;;;12.50;10.00;;;17.40;99.90;;;;;;5047213;28;20035;-74
2022/07/30 06:19:33;;;;;;;12.50;9.70;;;17.40;99.90;;;;;;5044198;28;20021;-74
2022/07/30 06:21:59;;;;;;;13.48;10.32;;;17.50;99.90;;;;;;5052429;28;20467;-73
2022/07/30 06:24:25;;;;;;;15.75;10.80;;;17.50;99.90;;;;;;5060128;28;20070;-74
2022/07/30 06:26:50;;;;;;;14.70;11.65;;;17.60;99.90;;;;;;5067080;28;20477;-74
2022/07/30 06:29:16;;;;;;;16.92;11.30;;;17.70;99.90;;;;;;5063122;28;20036;-74
2022/07/30 06:31:41;;;;;;;12.60;10.85;;;17.70;99.90;;;;;;5047455;28;20040;-74
2022/07/30 06:34:07;;;;;;;16.20;13.48;;;17.80;99.90;;;;;;5046966;28;20029;-73
2022/07/30 06:36:32;;;;;;;16.75;13.15;;;17.90;99.90;;;;;;5046357;28;20381;-73
2022/07/30 06:38:58;;;;;;;14.93;13.43;;;17.90;99.90;;;;;;5045108;28;20032;-74
2022/07/30 06:41:24;;;;;;;19.48;13.43;;;18.10;99.90;;;;;;5048065;28;20143;-74
2022/07/30 06:43:50;;;;;;;14.88;12.98;;;18.20;99.90;;;;;;5046612;28;20174;-74
2022/07/30 06:46:16;;;;;;;17.08;13.80;;;18.30;99.90;;;;;;5046722;28;20652;-71
2022/07/30 06:48:41;;;;;;;17.20;13.32;;;18.60;99.90;;;;;;5056212;28;20157;-71
2022/07/30 06:51:07;;;;;;;13.88;11.70;;;18.60;99.90;;;;;;5044888;28;20501;-71
2022/07/30 06:53:33;;;;;;;18.08;14.38;;;18.60;99.90;;;;;;5042064;28;20064;-71
2022/07/30 06:55:59;;;;;;;21.45;14.88;;;18.60;99.90;;;;;;5046894;28;20131;-71
2022/07/30 06:58:24;;;;;;;16.08;12.55;;;18.60;99.90;;;;;;5042163;28;20029;-71
2022/07/30 07:00:50;;;;;;;15.20;12.32;;;18.70;99.90;;;;;;5045457;28;20021;-71
2022/07/30 07:03:15;;;;;;;17.60;12.52;;;18.80;99.90;;;;;;5048312;28;20380;-71
2022/07/30 07:05:41;;;;;;;17.63;12.45;;;18.80;99.90;;;;;;5054151;28;20027;-71
2022/07/30 07:08:07;;;;;;;16.55;12.07;;;18.90;99.90;;;;;;5049743;28;20032;-72
2022/07/30 07:10:32;;;;;;;17.88;12.70;;;19.00;99.90;;;;;;5065237;28;20042;-72
2022/07/30 07:12:59;;;;;;;16.65;13.70;;;19.20;99.90;;;;;;5055746;28;20025;-72
2022/07/30 07:15:25;;;;;;;15.95;12.75;;;19.20;99.90;;;;;;5063346;28;20028;-71
2022/07/30 07:17:51;;;;;;;13.98;12.50;;;19.30;99.90;;;;;;5053013;28;20077;-71
2022/07/30 07:20:17;;;;;;;17.33;14.02;;;19.50;99.90;;;;;;5062626;28;20025;-71
2022/07/30 07:22:42;;;;;;;16.83;14.02;;;19.60;99.90;;;;;;5069581;28;20686;-71
2022/07/30 07:25:08;;;;;;;17.85;14.13;;;19.60;99.90;;;;;;5058033;28;20746;-71
2022/07/30 07:27:35;;;;;;;13.98;12.15;;;19.70;99.90;;;;;;5073396;28;20039;-72
2022/07/30 07:30:01;;;;;;;15.15;13.25;;;19.80;99.90;;;;;;5074790;28;20111;-71
2022/07/30 07:32:27;;;;;;;16.75;12.88;;;20.00;99.90;;;;;;5063679;28;20123;-71
2022/07/30 07:34:52;;;;;;;13.38;10.13;;;20.00;99.90;;;;;;5064522;28;20025;-71
2022/07/30 07:37:18;;;;;;;12.55;9.95;;;20.00;99.90;;;;;;5064613;28;20611;-71
2022/07/30 07:39:44;;;;;;;12.70;10.48;;;20.00;99.90;;;;;;5073310;28;20116;-71
2022/07/30 07:42:10;;;;;;;12.93;10.85;;;;;;;;;;5074183;28;20031;-71
2022/07/30 07:44:36;;;;;;;12.93;10.75;;;;;;;;;;5072484;28;20025;-71
2022/07/30 07:47:02;;;;;;;15.02;10.90;;;;;;;;;;5072849;28;20087;-71
2022/07/30 07:49:28;;;;;;;12.90;9.80;;;;;;;;;;5054076;28;20071;-71
2022/07/30 07:51:54;;;;;;;11.93;9.60;;;;;;;;;;5046057;28;20033;-71
2022/07/30 07:54:20;;;;;;;11.20;10.00;;;;;;;;;;5057088;28;20448;-71
2022/07/30 07:56:47;;;;;;;13.13;10.77;;;;;;;;;;5045859;28;20029;-71
2022/07/30 07:59:13;;;;;;;13.93;11.05;;;;;;;;;;5051422;28;20522;-71
2022/07/30 08:01:39;;;;;;;13.48;10.10;;;;;;;;;;5052489;28;20037;-71
2022/07/30 08:04:05;;;;;;;11.63;9.57;;;;;;;;;;5048443;28;20055;-71
2022/07/30 08:06:31;;;;;;;11.57;9.25;;;;;;;;;;5050770;28;20123;-71
2022/07/30 08:08:57;;;;;;;10.13;8.18;;;;;;;;;;5054612;28;20104;-71
2022/07/30 08:11:23;;;;;;;11.65;8.90;;;;;;;;;;5062109;28;20051;-71
2022/07/30 08:13:49;;;;;;;9.52;7.95;;;;;;;;;;5050131;28;20573;-72
2022/07/30 08:16:15;;;;;;;9.77;8.88;;;;;;;;;;5068536;28;20021;-71
2022/07/30 08:18:41;;;;;;;11.88;9.75;;;;;;;;;;5057864;28;20049;-71
2022/07/30 08:21:07;;;;;;;15.18;9.82;;;;;;;;;;5045642;28;20040;-72
2022/07/30 08:23:34;;;;;;;10.40;9.18;;;;;;;;;;5045377;28;20024;-71
2022/07/30 08:25:59;;;;;;;11.73;8.35;;;21.50;99.90;;;;;;5045895;28;20040;-71
2022/07/30 08:28:25;;;;;;;12.13;9.07;;;21.60;99.90;;;;;;5055463;28;20029;-71
2022/07/30 08:30:51;;;;;;;11.80;8.50;;;21.40;99.90;;;;;;5054282;28;20036;-72
2022/07/30 08:33:17;;;;;;;9.90;8.63;;;21.40;99.90;;;;;;5060714;28;20075;-72
2022/07/30 08:35:42;;;;;;;12.63;8.60;;;21.50;99.90;;;;;;5048360;28;20029;-72
2022/07/30 08:38:08;;;;;;;11.40;8.60;;;21.60;99.90;;;;;;5052813;28;20040;-72
2022/07/30 08:40:34;;;;;;;15.43;10.68;;;21.80;99.90;;;;;;5052694;28;20025;-72
2022/07/30 08:43:03;;;;;;;12.20;8.38;;;21.90;99.90;;;;;;5087115;28;20024;-72
2022/07/30 08:45:30;;;;;;;10.55;8.70;;;22.00;99.90;;;;;;5080643;28;20055;-72
2022/07/30 08:47:58;;;;;;;11.27;8.85;;;22.00;99.90;;;;;;5054010;28;20044;-71
2022/07/30 08:50:24;;;;;;;10.25;8.65;;;22.20;99.90;;;;;;5060069;28;20754;-71
2022/07/30 08:52:54;;;;;;;16.17;8.95;;;22.50;99.90;;;;;;5063089;28;20048;-71
2022/07/30 08:55:23;;;;;;;12.57;7.82;;;22.60;99.90;;;;;;5053795;28;20028;-71
2022/07/30 08:57:50;;;;;;;13.43;8.88;;;22.70;99.90;;;;;;5058797;28;20036;-71
2022/07/30 09:00:16;;;;;;;15.63;9.13;;;22.90;99.90;;;;;;5051305;28;20029;-71
2022/07/30 09:02:42;;;;;;;8.90;6.38;;;23.00;99.90;;;;;;5054852;28;20063;-72
2022/07/30 09:05:11;;;;;;;7.68;5.90;;;23.10;99.90;;;;;;5063083;28;20208;-71
2022/07/30 09:07:37;;;;;;;8.48;6.10;;;23.20;99.90;;;;;;5071094;28;20043;-71
2022/07/30 09:10:07;;;;;;;12.98;7.30;;;23.40;99.90;;;;;;5063240;28;20043;-73
2022/07/30 09:12:40;;;;;;;9.60;6.20;;;23.60;99.90;;;;;;5048425;28;20056;-73
2022/07/30 09:15:07;;;;;;;13.30;6.60;;;23.80;99.90;;;;;;5047420;28;20013;-73
2022/07/30 09:17:45;;;;;;;9.05;6.20;;;23.80;99.90;;;;;;5051625;28;20098;-73
2022/07/30 09:20:11;;;;;;;7.28;5.47;;;23.70;99.90;;;;;;5057497;28;20120;-73
2022/07/30 09:22:55;;;;;;;9.20;6.15;;;23.80;99.90;;;;;;5049647;28;20100;-73
2022/07/30 09:25:35;;;;;;;8.70;6.30;;;24.00;99.90;;;;;;5058743;28;20063;-73
2022/07/30 09:28:01;;;;;;;10.98;6.80;;;24.10;99.90;;;;;;5052965;28;20111;-73
2022/07/30 09:30:48;;;;;;;11.48;5.93;;;24.00;99.90;;;;;;5047338;28;20108;-73
2022/07/30 09:33:14;;;;;;;8.40;5.57;;;23.70;99.90;;;;;;5043589;28;20033;-72
2022/07/30 09:35:42;;;;;;;9.07;6.63;;;23.60;99.90;;;;;;5050351;28;20028;-73
2022/07/30 09:38:08;;;;;;;7.65;5.82;;;23.50;99.90;;;;;;5043646;28;20451;-72
2022/07/30 09:40:33;;;;;;;8.68;6.03;;;23.40;99.90;;;;;;5059374;28;20577;-73
2022/07/30 09:43:09;;;;;;;9.27;5.97;;;23.40;99.90;;;;;;5046646;28;20037;-73
2022/07/30 09:45:48;;;;;;;6.78;5.32;;;23.30;99.90;;;;;;5049784;28;20031;-72
2022/07/30 09:48:22;;;;;;;7.90;5.50;;;23.30;99.90;;;;;;5048687;28;20040;-72
2022/07/30 09:50:49;;;;;;;7.03;5.07;;;23.30;99.90;;;;;;5048460;28;20102;-72
2022/07/30 09:53:15;;;;;;;7.95;4.95;;;23.30;99.90;;;;;;5056708;28;20029;-73
2022/07/30 09:55:40;;;;;;;8.63;5.55;;;23.30;99.90;;;;;;5065534;28;20438;-73
2022/07/30 09:58:06;;;;;;;7.97;5.60;;;23.40;99.90;;;;;;5061864;28;20211;-73
2022/07/30 10:00:34;;;;;;;8.65;5.25;;;23.50;99.90;;;;;;5043836;28;20032;-73
2022/07/30 10:03:00;;;;;;;7.03;5.13;;;23.50;99.90;;;;;;5047594;28;20066;-73
2022/07/30 10:05:26;;;;;;;6.22;4.65;;;23.50;99.90;;;;;;5058852;28;20196;-73
2022/07/30 10:07:56;;;;;;;8.68;5.07;;;23.60;99.90;;;;;;5050278;28;20028;-73
2022/07/30 10:10:26;;;;;;;9.45;5.65;;;23.60;99.90;;;;;;5045722;28;20568;-73
2022/07/30 10:12:58;;;;;;;9.30;5.07;;;23.60;99.90;;;;;;5051838;28;20056;-73
2022/07/30 10:15:27;;;;;;;6.47;4.60;;;23.60;99.90;;;;;;5063313;28;20370;-73
2022/07/30 10:17:53;;;;;;;10.40;5.10;;;23.70;99.90;;;;;;5061098;28;20103;-73
2022/07/30 10:20:19;;;;;;;7.05;4.70;;;23.80;99.90;;;;;;5052326;28;20111;-73
2022/07/30 10:22:45;;;;;;;8.93;5.20;;;23.90;99.90;;;;;;5059517;28;20074;-73
2022/07/30 10:25:11;;;;;;;7.35;4.68;;;24.10;99.90;;;;;;5072856;28;20107;-74
2022/07/30 10:27:38;;;;;;;10.73;5.60;;;24.20;99.90;;;;;;5056713;28;20107;-74
2022/07/30 10:30:04;;;;;;;7.82;4.20;;;24.30;99.90;;;;;;5058814;28;20020;-74
2022/07/30 10:32:31;;;;;;;7.22;3.92;;;24.30;99.90;;;;;;5048557;28;20021;-74
2022/07/30 10:34:57;;;;;;;10.48;4.68;;;24.40;99.90;;;;;;5051200;28;20055;-74
2022/07/30 10:37:26;;;;;;;10.18;4.43;;;24.50;99.90;;;;;;5063110;28;20047;-74
2022/07/30 10:40:05;;;;;;;9.30;4.03;;;24.60;99.90;;;;;;5054052;28;20044;-74
2022/07/30 10:42:48;;;;;;;5.85;4.15;;;24.80;99.90;;;;;;5066752;28;20429;-74
2022/07/30 10:45:22;;;;;;;7.35;4.30;;;25.00;99.90;;;;;;5056964;28;20040;-74
2022/07/30 10:47:48;;;;;;;;;;;25.20;99.90;;;;;;5059936;28;20048;-74
2022/07/30 10:50:18;;;;;;;12.30;5.20;;;25.50;99.90;;;;;;5057937;28;20349;-74
2022/07/30 10:52:52;;;;;;;7.15;3.95;;;25.60;99.90;;;;;;5069837;28;20025;-74
2022/07/30 10:55:45;;;;;;;9.32;4.50;;;25.40;99.90;;;;;;5073896;28;20021;-75
2022/07/30 10:58:12;;;;;;;8.75;4.35;;;25.60;99.90;;;;;;5059673;28;20157;-75
2022/07/30 11:00:50;;;;;;;7.95;3.90;;;25.90;97.20;;;;;;5067693;28;20048;-75
2022/07/30 11:03:22;;;;;;;11.27;3.85;;;26.00;96.20;;;;;;5072832;28;20192;-74
2022/07/30 11:06:09;;;;;;;6.05;3.38;;;26.10;96.10;;;;;;5055404;28;20143;-74
2022/07/30 11:08:37;;;;;;;5.57;3.20;;;26.20;95.00;;;;;;5044584;28;20449;-75
2022/07/30 11:11:05;;;;;;;6.97;3.72;;;26.30;94.60;;;;;;5060511;28;20060;-74
2022/07/30 11:13:51;;;;;;;8.23;3.50;;;26.20;93.80;;;;;;5063318;28;20119;-75
2022/07/30 11:16:19;;;;;;;4.13;3.03;;;25.80;93.60;;;;;;5067101;28;20110;-74
2022/07/30 11:19:04;;;;;;;9.07;3.47;;;25.40;94.30;;;;;;5056332;28;20030;-75
2022/07/30 11:21:31;;;;;;;4.53;3.38;;;25.10;94.70;;;;;;5059384;28;20036;-75
2022/07/30 11:23:57;;;;;;;6.25;3.22;;;24.90;96.40;;;;;;5070859;28;20063;-75
2022/07/30 11:26:38;;;;;;;10.85;3.38;;;24.90;95.80;;;;;;5058045;28;20562;-75
2022/07/30 11:29:04;;;;;;;4.68;3.00;;;24.80;96.50;;;;;;5052926;28;20029;-74
2022/07/30 11:31:31;;;;;;;7.05;3.45;;;24.80;96.40;;;;;;5060441;28;20046;-74
2022/07/30 11:34:19;;;;;;;10.32;3.90;;;24.70;96.10;;;;;;5048338;28;20098;-74
2022/07/30 11:37:17;;;;;;;10.95;3.28;;;24.50;95.10;;;;;;5053139;28;20133;-74
2022/07/30 11:39:55;;;;;;;8.48;3.40;;;24.40;95.20;;;;;;5043880;28;20094;-75
2022/07/30 11:42:27;;;;;;;9.10;3.40;;;24.30;95.90;;;;;;5057120;28;20094;-75
2022/07/30 11:45:15;;;;;;;5.63;2.83;;;24.30;95.80;;;;;;5063128;28;20036;-75
2022/07/30 11:47:49;;;;;;;7.78;3.15;;;24.40;96.90;;;;;;5056584;28;20923;-75
2022/07/30 11:50:23;;;;;;;6.55;3.00;;;24.40;95.50;;;;;;5063531;28;20025;-75
2022/07/30 11:52:54;;;;;;;5.65;3.60;;;24.40;94.90;;;;;;4704226;28;10000554;-75
2022/07/30 11:55:27;;;;;;;6.68;3.40;;;24.50;94.20;;;;;;5049020;28;20024;-74
2022/07/30 11:57:57;;;;;;;8.60;3.22;;;24.60;94.00;;;;;;5049156;28;20025;-73
2022/07/30 12:00:24;;;;;;;8.77;3.30;;;24.80;93.70;;;;;;5053818;28;20024;-74
2022/07/30 12:02:50;;;;;;;7.47;3.10;;;24.80;94.00;;;;;;5057773;28;20099;-74
2022/07/30 12:05:24;;;;;;;6.03;3.10;;;25.00;94.00;;;;;;5053733;28;20055;-74
2022/07/30 12:07:50;;;;;;;4.47;2.80;;;25.30;93.10;;;;;;5068813;28;20541;-74
2022/07/30 12:10:19;;;;;;;7.30;3.08;;;25.50;92.00;;;;;;5066660;28;20035;-74
2022/07/30 12:12:46;;;;;;;6.40;2.63;;;26.00;91.60;;;;;;5048665;28;20024;-74
2022/07/30 12:15:31;;;;;;;6.05;2.90;;;26.20;91.50;;;;;;5068016;28;20029;-74
2022/07/30 12:17:57;;;;;;;5.40;2.90;;;26.40;90.10;;;;;;5054628;28;20032;-74
2022/07/30 12:20:22;;;;;;;9.73;2.70;;;26.60;88.60;;;;;;5060320;28;20041;-74
2022/07/30 12:22:48;;;;;;;9.13;2.92;;;26.60;87.60;;;;;;5054809;28;20642;-74
2022/07/30 12:25:14;;;;;;;6.93;2.90;;;26.50;89.70;;;;;;5051170;28;20489;-74
2022/07/30 12:27:44;;;;;;;5.10;3.10;;;26.30;90.60;;;;;;5050699;28;20485;-74
2022/07/30 12:30:10;;;;;;;9.82;2.85;;;26.00;90.60;;;;;;5059035;28;20040;-74
2022/07/30 12:32:36;;;;;;;11.77;3.10;;;25.70;91.90;;;;;;5060422;28;20032;-74
2022/07/30 12:35:02;;;;;;;7.72;3.03;;;25.40;91.00;;;;;;5066615;28;20107;-74
2022/07/30 12:37:28;;;;;;;7.43;2.88;;;25.10;91.80;;;;;;5082204;28;20052;-74
2022/07/30 12:40:10;;;;;;;7.63;2.70;;;25.00;92.00;;;;;;5064128;28;20635;-74
2022/07/30 12:42:37;;;;;;;10.32;3.45;;;24.80;91.60;;;;;;5063365;28;20029;-74
2022/07/30 12:45:05;;;;;;;8.13;3.17;;;24.70;91.80;;;;;;5047671;28;20479;-74
2022/07/30 12:47:32;;;;;;;7.45;3.00;;;24.70;92.40;;;;;;5048227;28;20033;-74
2022/07/30 12:50:00;;;;;;;11.70;3.58;;;24.60;91.80;;;;;;5054766;28;20485;-74
2022/07/30 12:52:32;;;;;;;5.88;2.88;;;24.50;92.40;;;;;;5079034;28;20082;-73